createdAt,value
2018-06-23T00:01:43.232Z,5.20
2018-06-23T00:04:11.617Z,2.00
2018-06-23T00:06:40.033Z,1.30
2018-06-23T00:09:08.461Z,3.50
2018-06-23T00:11:36.877Z,2.80
2018-06-23T00:14:05.316Z,3.73
2018-06-23T00:16:34.328Z,4.13
2018-06-23T00:19:02.707Z,8.13
2018-06-23T00:21:31.096Z,2.67
2018-06-23T00:23:59.504Z,5.37
2018-06-23T00:26:29.897Z,4.50
2018-06-23T00:28:58.692Z,7.00
2018-06-23T00:31:27.176Z,9.00
2018-06-23T00:33:55.565Z,4.93
2018-06-23T00:36:23.970Z,4.77
2018-06-23T00:38:52.321Z,2.57
2018-06-23T00:41:20.675Z,2.63
2018-06-23T00:43:49.059Z,3.53
2018-06-23T00:46:17.433Z,3.67
2018-06-23T00:48:45.840Z,4.37
2018-06-23T00:51:14.270Z,6.13
2018-06-23T00:53:42.663Z,3.57
2018-06-23T00:56:11.090Z,5.80
2018-06-23T00:58:50.705Z,3.40
2018-06-23T01:01:19.093Z,6.53
2018-06-23T01:03:47.461Z,6.40
2018-06-23T01:06:15.864Z,7.87
2018-06-23T01:08:44.318Z,4.87
2018-06-23T01:11:12.713Z,5.30
2018-06-23T01:13:41.093Z,12.57
2018-06-23T01:16:09.512Z,3.87
2018-06-23T01:18:38.461Z,6.40
2018-06-23T01:21:06.846Z,10.43
2018-06-23T01:23:35.248Z,5.37
2018-06-23T01:26:04.009Z,6.00
2018-06-23T01:28:32.387Z,6.73
2018-06-23T01:31:00.502Z,10.93
2018-06-23T01:33:28.896Z,7.10
2018-06-23T01:35:57.317Z,10.30
2018-06-23T01:38:25.816Z,8.03
2018-06-23T01:40:54.210Z,4.37
2018-06-23T01:43:22.596Z,8.33
2018-06-23T01:45:51.024Z,4.90
2018-06-23T01:48:19.124Z,5.07
2018-06-23T01:50:47.482Z,10.43
2018-06-23T01:53:15.874Z,10.17
2018-06-23T01:55:44.223Z,3.87
2018-06-23T01:58:12.728Z,7.97
2018-06-23T02:00:40.814Z,6.20
2018-06-23T02:03:09.180Z,8.20
2018-06-23T02:05:37.653Z,8.13
2018-06-23T02:08:06.399Z,13.47
2018-06-23T02:10:34.795Z,7.80
2018-06-23T02:13:03.215Z,18.97
2018-06-23T02:15:36.868Z,5.70
2018-06-23T02:18:10.680Z,11.63
2018-06-23T02:20:44.356Z,12.17
2018-06-23T02:24:15.405Z,10.87
2018-06-23T02:26:49.094Z,13.20
2018-06-23T02:29:22.814Z,5.70
2018-06-23T02:31:56.619Z,11.60
2018-06-23T02:34:30.391Z,9.73
2018-06-23T02:36:58.776Z,10.67
2018-06-23T02:39:26.941Z,20.17
2018-06-23T02:41:55.357Z,13.50
2018-06-23T02:44:23.785Z,8.53
2018-06-23T02:46:52.169Z,13.27
2018-06-23T02:49:20.619Z,12.50
2018-06-23T02:51:49.000Z,16.07
2018-06-23T02:54:17.385Z,10.30
2018-06-23T02:56:45.778Z,12.80
2018-06-23T02:59:14.795Z,15.93
2018-06-23T03:01:43.142Z,11.53
2018-06-23T03:04:11.519Z,11.17
2018-06-23T03:06:40.462Z,12.73
2018-06-23T03:09:08.882Z,11.27
2018-06-23T03:11:37.266Z,14.60
2018-06-23T03:14:05.677Z,14.23
2018-06-23T03:16:34.070Z,10.30
2018-06-23T03:19:02.541Z,11.77
2018-06-23T03:21:31.249Z,13.30
2018-06-23T03:23:59.625Z,10.43
2018-06-23T03:26:28.023Z,16.07
2018-06-23T03:28:56.511Z,17.40
2018-06-23T03:31:24.920Z,16.27
2018-06-23T03:33:53.364Z,19.23
2018-06-23T03:36:21.784Z,14.47
2018-06-23T03:38:50.150Z,15.60
2018-06-23T03:41:18.548Z,12.63
2018-06-23T03:43:46.999Z,16.10
2018-06-23T03:46:15.056Z,11.57
2018-06-23T03:48:43.601Z,16.13
2018-06-23T03:51:11.995Z,13.70
2018-06-23T03:53:40.075Z,13.60
2018-06-23T03:56:08.437Z,6.63
2018-06-23T03:58:36.793Z,12.90
2018-06-23T04:01:06.919Z,14.53
2018-06-23T04:03:35.869Z,18.67
2018-06-23T04:06:04.344Z,14.23
2018-06-23T04:08:33.340Z,14.93
2018-06-23T04:11:02.857Z,13.47
2018-06-23T04:13:31.493Z,17.13
2018-06-23T04:15:59.913Z,16.30
2018-06-23T04:18:28.310Z,13.50
2018-06-23T04:20:56.707Z,13.33
2018-06-23T04:23:25.104Z,12.40
2018-06-23T04:25:53.529Z,12.30
2018-06-23T04:28:21.874Z,14.90
2018-06-23T04:30:50.581Z,11.20
2018-06-23T04:33:18.947Z,13.93
2018-06-23T04:35:47.401Z,12.97
2018-06-23T04:38:15.785Z,16.07
2018-06-23T04:40:44.200Z,11.90
2018-06-23T04:43:12.582Z,14.73
2018-06-23T04:45:40.992Z,11.90
2018-06-23T04:48:09.933Z,14.80
2018-06-23T04:50:38.035Z,14.80
2018-06-23T04:53:06.460Z,13.50
2018-06-23T04:55:35.697Z,9.17
2018-06-23T04:58:04.213Z,13.90
2018-06-23T05:00:32.670Z,10.30
2018-06-23T05:03:00.987Z,14.53
2018-06-23T05:05:29.376Z,10.40
2018-06-23T05:07:57.776Z,11.37
2018-06-23T05:10:27.117Z,20.27
2018-06-23T05:12:55.531Z,12.87
2018-06-23T05:15:23.930Z,13.40
2018-06-23T05:17:52.308Z,14.23
2018-06-23T05:20:20.880Z,13.37
2018-06-23T05:22:49.555Z,20.23
2018-06-23T05:25:17.958Z,14.67
2018-06-23T05:27:46.357Z,17.13
2018-06-23T05:30:14.714Z,10.60
2018-06-23T05:32:44.304Z,16.10
2018-06-23T05:35:12.817Z,13.33
2018-06-23T05:37:41.024Z,8.93
2018-06-23T05:40:09.417Z,14.60
2018-06-23T05:42:37.825Z,16.73
2018-06-23T05:45:06.235Z,23.33
2018-06-23T05:47:34.628Z,8.90
2018-06-23T05:50:03.034Z,17.73
2018-06-23T05:52:31.457Z,8.97
2018-06-23T05:54:59.921Z,10.07
2018-06-23T05:57:28.363Z,11.77
2018-06-23T05:59:56.800Z,12.70
2018-06-23T06:02:25.235Z,9.00
2018-06-23T06:04:53.666Z,14.10
2018-06-23T06:07:22.104Z,11.03
2018-06-23T06:09:50.524Z,7.60
2018-06-23T06:12:19.003Z,10.20
2018-06-23T06:14:47.483Z,13.83
2018-06-23T06:17:23.213Z,8.83
2018-06-23T06:19:53.779Z,16.40
2018-06-23T06:22:23.884Z,13.80
2018-06-23T06:24:52.468Z,12.13
2018-06-23T06:27:20.955Z,9.40
2018-06-23T06:29:49.904Z,8.30
2018-06-23T06:32:18.390Z,12.03
2018-06-23T06:34:47.004Z,6.63
2018-06-23T06:37:15.401Z,8.60
2018-06-23T06:39:44.153Z,9.27
2018-06-23T06:42:12.734Z,10.47
2018-06-23T06:44:41.280Z,8.07
2018-06-23T06:47:11.146Z,7.27
2018-06-23T06:49:39.603Z,6.30
2018-06-23T06:52:07.992Z,11.20
2018-06-23T06:54:36.403Z,6.20
2018-06-23T06:57:04.877Z,12.43
2018-06-23T06:59:33.270Z,8.30
2018-06-23T07:02:02.322Z,8.03
2018-06-23T07:04:30.757Z,4.83
2018-06-23T07:06:59.215Z,6.00
2018-06-23T07:09:27.720Z,6.10
2018-06-23T07:11:56.126Z,6.57
2018-06-23T07:14:24.858Z,9.93
2018-06-23T07:16:53.408Z,3.80
2018-06-23T07:19:21.844Z,10.07
2018-06-23T07:21:50.258Z,5.47
2018-06-23T07:24:18.754Z,7.50
2018-06-23T07:26:47.480Z,6.70
2018-06-23T07:29:15.926Z,5.03
2018-06-23T07:31:44.328Z,4.77
2018-06-23T07:34:12.889Z,7.50
2018-06-23T07:36:41.314Z,6.47
2018-06-23T07:39:10.700Z,6.23
2018-06-23T07:41:39.335Z,6.30
2018-06-23T07:44:08.564Z,10.40
2018-06-23T07:46:37.021Z,4.43
2018-06-23T07:49:06.399Z,4.30
2018-06-23T07:51:35.966Z,4.50
2018-06-23T07:54:06.459Z,2.40
2018-06-23T07:56:34.853Z,4.40
2018-06-23T07:59:03.223Z,2.23
2018-06-23T08:01:31.729Z,1.93
2018-06-23T08:04:00.167Z,2.47
2018-06-23T08:06:28.587Z,4.37
2018-06-23T08:08:57.003Z,2.67
2018-06-23T08:11:25.404Z,3.17
2018-06-23T08:13:53.819Z,2.03
2018-06-23T08:16:22.205Z,0.40
2018-06-23T08:18:50.565Z,1.50
2018-06-23T08:21:18.960Z,4.00
2018-06-23T08:23:47.360Z,2.70
2018-06-23T08:26:15.764Z,0.33
2018-06-23T08:28:44.125Z,0.60
2018-06-23T08:31:12.522Z,0.33
2018-06-23T08:33:40.944Z,1.20
2018-06-23T08:36:09.448Z,1.53
2018-06-23T08:38:37.836Z,0.43
2018-06-23T08:41:06.293Z,1.17
2018-06-23T08:43:34.713Z,1.13
2018-06-23T08:46:03.169Z,0.77
2018-06-23T08:48:31.510Z,1.50
2018-06-23T08:50:59.674Z,1.13
2018-06-23T08:53:28.106Z,1.10
2018-06-23T08:55:57.272Z,0.73
2018-06-23T08:58:25.433Z,2.60
2018-06-23T09:00:53.922Z,1.50
2018-06-23T09:03:22.281Z,0.50
2018-06-23T09:05:50.665Z,2.43
2018-06-23T09:08:19.079Z,1.23
2018-06-23T09:10:47.485Z,3.17
2018-06-23T09:13:15.898Z,1.27
2018-06-23T09:15:44.600Z,2.17
2018-06-23T09:18:13.116Z,1.70
2018-06-23T09:20:41.690Z,2.13
2018-06-23T09:23:10.091Z,1.07
2018-06-23T09:25:38.473Z,2.23
2018-06-23T09:28:06.893Z,1.10
2018-06-23T09:30:35.279Z,3.27
2018-06-23T09:33:04.229Z,5.07
2018-06-23T09:35:32.562Z,1.57
2018-06-23T09:38:01.968Z,1.30
2018-06-23T09:40:30.790Z,3.17
2018-06-23T09:42:59.890Z,1.37
2018-06-23T09:45:28.283Z,1.30
2018-06-23T09:47:56.733Z,1.50
2018-06-23T09:50:25.112Z,0.70
2018-06-23T09:52:53.528Z,2.37
2018-06-23T09:55:21.933Z,1.73
2018-06-23T09:57:50.302Z,1.83
2018-06-23T10:00:22.975Z,4.00
2018-06-23T10:02:51.418Z,0.73
2018-06-23T10:05:19.787Z,0.90
2018-06-23T10:07:48.203Z,1.83
2018-06-23T10:10:16.757Z,1.95
2018-06-23T10:12:45.752Z,0.93
2018-06-23T10:15:14.144Z,1.30
2018-06-23T10:17:42.601Z,2.97
2018-06-23T10:20:10.980Z,1.12
2018-06-23T10:22:39.366Z,4.78
2018-06-23T10:25:07.763Z,3.08
2018-06-23T10:27:36.159Z,0.93
2018-06-23T10:30:04.828Z,4.50
2018-06-23T10:32:33.185Z,1.98
2018-06-23T10:35:01.612Z,1.82
2018-06-23T10:37:30.004Z,2.45
2018-06-23T10:39:58.397Z,3.30
2018-06-23T10:42:26.931Z,0.98
2018-06-23T10:44:55.917Z,4.37
2018-06-23T10:47:24.298Z,1.50
2018-06-23T10:49:52.741Z,1.77
2018-06-23T10:52:21.163Z,0.50
2018-06-23T10:54:49.569Z,2.15
2018-06-23T10:57:17.972Z,2.50
2018-06-23T10:59:46.375Z,0.78
2018-06-23T11:02:14.774Z,1.67
2018-06-23T11:04:43.251Z,0.60
2018-06-23T11:07:11.663Z,2.12
2018-06-23T11:09:40.148Z,1.87
2018-06-23T11:12:08.612Z,0.30
2018-06-23T11:14:37.047Z,0.75
2018-06-23T11:17:05.513Z,0.65
2018-06-23T11:19:33.951Z,1.40
2018-06-23T11:22:02.322Z,1.00
2018-06-23T11:24:30.920Z,0.53
2018-06-23T11:26:59.607Z,0.70
2018-06-23T11:29:27.983Z,1.02
2018-06-23T11:31:57.240Z,1.17
2018-06-23T11:34:25.661Z,0.72
2018-06-23T11:36:54.610Z,0.65
2018-06-23T11:39:23.019Z,0.95
2018-06-23T11:41:51.421Z,0.30
2018-06-23T11:44:19.806Z,1.32
2018-06-23T11:46:48.204Z,1.47
2018-06-23T11:49:16.587Z,2.92
2018-06-23T11:51:44.978Z,1.30
2018-06-23T11:54:13.572Z,0.23
2018-06-23T11:56:42.033Z,1.20
2018-06-23T11:59:11.537Z,1.77
2018-06-23T12:01:40.054Z,0.53
2018-06-23T12:04:08.509Z,1.02
2018-06-23T12:06:36.950Z,1.87
2018-06-23T12:09:07.928Z,1.30
2018-06-23T12:11:36.362Z,1.63
2018-06-23T12:14:04.761Z,1.00
2018-06-23T12:16:33.119Z,1.53
2018-06-23T12:19:01.605Z,2.22
2018-06-23T12:21:30.009Z,1.12
2018-06-23T12:23:58.403Z,1.17
2018-06-23T12:26:26.802Z,1.17
2018-06-23T12:28:55.159Z,1.15
2018-06-23T12:31:23.576Z,1.37
2018-06-23T12:33:51.940Z,2.47
2018-06-23T12:36:20.143Z,1.20
2018-06-23T12:38:48.581Z,2.15
2018-06-23T12:41:16.960Z,1.30
2018-06-23T12:43:45.328Z,2.47
2018-06-23T12:46:13.695Z,0.68
2018-06-23T12:48:42.155Z,1.17
2018-06-23T12:51:10.568Z,1.50
2018-06-23T12:53:39.015Z,1.50
2018-06-23T12:56:07.507Z,0.90
2018-06-23T12:58:35.898Z,1.17
2018-06-23T13:01:04.384Z,1.10
2018-06-23T13:03:33.481Z,1.23
2018-06-23T13:06:01.895Z,1.33
2018-06-23T13:08:30.685Z,1.30
2018-06-23T13:10:59.684Z,1.83
2018-06-23T13:13:28.030Z,2.77
2018-06-23T13:15:56.465Z,1.47
2018-06-23T13:18:24.882Z,0.50
2018-06-23T13:20:53.306Z,1.30
2018-06-23T13:23:21.906Z,2.47
2018-06-23T13:25:50.315Z,1.17
2018-06-23T13:28:18.678Z,1.63
2018-06-23T13:30:47.038Z,1.93
2018-06-23T13:33:15.528Z,1.43
2018-06-23T13:35:43.864Z,2.97
2018-06-23T13:38:12.320Z,3.90
2018-06-23T13:40:40.722Z,1.90
2018-06-23T13:43:10.221Z,3.23
2018-06-23T13:45:38.676Z,3.73
2018-06-23T13:48:07.099Z,2.57
2018-06-23T13:50:35.515Z,2.13
2018-06-23T13:53:04.301Z,2.90
2018-06-23T13:55:32.816Z,1.40
2018-06-23T13:58:01.248Z,1.43
2018-06-23T14:00:29.674Z,1.40
2018-06-23T14:02:58.261Z,3.20
2018-06-23T14:05:26.632Z,2.47
2018-06-23T14:07:55.103Z,1.87
2018-06-23T14:10:23.896Z,0.40
2018-06-23T14:12:52.506Z,3.00
2018-06-23T14:15:20.945Z,1.23
2018-06-23T14:17:49.351Z,1.80
2018-06-23T14:20:17.804Z,2.00
2018-06-23T14:22:46.779Z,2.47
2018-06-23T14:25:15.246Z,1.40
2018-06-23T14:27:43.757Z,2.05
2018-06-23T14:30:12.144Z,3.27
2018-06-23T14:32:40.778Z,4.03
2018-06-23T14:35:09.285Z,0.72
2018-06-23T14:37:37.662Z,2.65
2018-06-23T14:40:06.108Z,1.87
2018-06-23T14:42:34.575Z,2.50
2018-06-23T14:45:02.985Z,1.10
2018-06-23T14:47:31.371Z,4.33
2018-06-23T14:49:59.910Z,1.50
2018-06-23T14:52:28.481Z,2.03
2018-06-23T14:54:57.043Z,2.57
2018-06-23T14:57:26.062Z,3.53
2018-06-23T14:59:54.664Z,4.15
2018-06-23T15:02:23.052Z,2.20
2018-06-23T15:04:51.487Z,3.10
2018-06-23T15:07:19.838Z,4.10
2018-06-23T15:09:59.659Z,2.40
2018-06-23T15:12:39.342Z,4.00
2018-06-23T15:15:07.722Z,6.17
2018-06-23T15:17:36.099Z,9.30
2018-06-23T15:20:04.515Z,3.40
2018-06-23T15:22:32.934Z,4.80
2018-06-23T15:25:01.352Z,3.33
2018-06-23T15:27:29.852Z,4.00
2018-06-23T15:29:58.228Z,3.53
2018-06-23T15:32:26.615Z,5.03
2018-06-23T15:34:55.530Z,5.37
2018-06-23T15:37:23.899Z,5.80
2018-06-23T15:39:52.334Z,6.43
2018-06-23T15:42:20.746Z,5.87
2018-06-23T15:44:49.176Z,7.33
2018-06-23T15:47:17.642Z,33.37
2018-06-23T15:49:46.095Z,6.57
2018-06-23T15:52:14.467Z,6.03
2018-06-23T15:54:42.845Z,6.00
2018-06-23T15:57:11.430Z,2.40
2018-06-23T15:59:39.810Z,5.57
2018-06-23T16:02:08.214Z,3.17
2018-06-23T16:04:36.692Z,4.70
2018-06-23T16:07:05.364Z,4.83
2018-06-23T16:09:33.777Z,6.37
2018-06-23T16:12:02.190Z,5.20
2018-06-23T16:14:30.568Z,4.87
2018-06-23T16:16:58.959Z,2.63
2018-06-23T16:19:27.380Z,3.83
2018-06-23T16:21:55.807Z,2.60
2018-06-23T16:24:24.231Z,7.93
2018-06-23T16:26:52.640Z,1.93
2018-06-23T16:29:21.044Z,2.20
2018-06-23T16:31:49.436Z,6.07
2018-06-23T16:34:17.827Z,2.10
2018-06-23T16:36:46.231Z,2.43
2018-06-23T16:39:14.596Z,3.47
2018-06-23T16:41:43.086Z,2.67
2018-06-23T16:44:11.597Z,0.83
2018-06-23T16:46:39.981Z,1.50
2018-06-23T16:49:08.359Z,2.00
2018-06-23T16:51:36.758Z,0.70
2018-06-23T16:54:05.149Z,3.07
2018-06-23T16:56:33.693Z,0.60
2018-06-23T16:59:02.045Z,2.13
2018-06-23T17:01:30.463Z,1.33
2018-06-23T17:03:58.926Z,0.90
2018-06-23T17:06:28.463Z,1.53
2018-06-23T17:08:56.851Z,0.73
2018-06-23T17:11:25.383Z,1.10
2018-06-23T17:13:54.287Z,2.07
2018-06-23T17:16:22.836Z,2.43
2018-06-23T17:18:51.213Z,3.97
2018-06-23T17:21:19.734Z,3.20
2018-06-23T17:23:48.292Z,1.30
2018-06-23T17:26:16.752Z,1.10
2018-06-23T17:28:45.258Z,1.10
2018-06-23T17:31:14.458Z,1.77
2018-06-23T17:33:42.904Z,1.77
2018-06-23T17:36:11.547Z,2.23
2018-06-23T17:38:40.008Z,1.53
2018-06-23T17:41:08.836Z,1.10
2018-06-23T17:43:37.261Z,1.87
2018-06-23T17:46:05.708Z,3.17
2018-06-23T17:48:34.288Z,5.00
2018-06-23T17:51:02.930Z,1.13
2018-06-23T17:53:31.619Z,2.17
2018-06-23T17:56:00.198Z,0.80
2018-06-23T17:58:28.633Z,2.63
2018-06-23T18:00:57.124Z,4.20
2018-06-23T18:03:25.560Z,1.13
2018-06-23T18:05:54.080Z,1.53
2018-06-23T18:08:23.265Z,2.37
2018-06-23T18:10:51.766Z,1.43
2018-06-23T18:13:20.212Z,0.97
2018-06-23T18:15:48.787Z,2.27
2018-06-23T18:18:17.224Z,1.50
2018-06-23T18:20:45.396Z,1.43
2018-06-23T18:23:13.820Z,1.00
2018-06-23T18:25:42.302Z,1.30
2018-06-23T18:28:10.745Z,1.40
2018-06-23T18:30:39.157Z,2.20
2018-06-23T18:33:07.596Z,1.83
2018-06-23T18:35:35.995Z,0.90
2018-06-23T18:38:04.841Z,0.97
2018-06-23T18:40:33.322Z,0.80
2018-06-23T18:43:01.800Z,1.33
2018-06-23T18:45:30.227Z,0.70
2018-06-23T18:47:58.451Z,0.60
2018-06-23T18:50:27.103Z,0.93
2018-06-23T18:52:55.286Z,1.33
2018-06-23T18:55:23.829Z,0.83
2018-06-23T18:57:52.233Z,1.00
2018-06-23T19:00:20.770Z,1.27
2018-06-23T19:02:49.175Z,0.97
2018-06-23T19:05:17.616Z,0.93
2018-06-23T19:07:46.223Z,2.00
2018-06-23T19:10:14.774Z,1.50
2018-06-23T19:12:43.852Z,1.00
2018-06-23T19:15:12.282Z,1.00
2018-06-23T19:17:40.998Z,1.33
2018-06-23T19:20:09.447Z,0.80
2018-06-23T19:22:37.909Z,0.77
2018-06-23T19:25:06.577Z,1.03
2018-06-23T19:27:35.924Z,1.80
2018-06-23T19:30:04.599Z,1.63
2018-06-23T19:32:32.955Z,2.70
2018-06-23T19:35:01.605Z,2.20
2018-06-23T19:37:30.009Z,3.07
2018-06-23T19:39:58.478Z,2.80
2018-06-23T19:42:26.871Z,3.30
2018-06-23T19:44:55.338Z,3.70
2018-06-23T19:47:23.895Z,4.03
2018-06-23T19:49:52.454Z,3.63
2018-06-23T19:52:20.899Z,3.67
2018-06-23T19:54:49.294Z,4.07
2018-06-23T19:57:17.870Z,7.80
2018-06-23T19:59:46.395Z,3.77
2018-06-23T20:02:14.843Z,4.57
2018-06-23T20:04:43.251Z,4.83
2018-06-23T20:07:11.716Z,5.13
2018-06-23T20:09:40.206Z,4.47
2018-06-23T20:12:08.680Z,4.63
2018-06-23T20:14:37.270Z,5.53
2018-06-23T20:17:06.196Z,2.17
2018-06-23T20:19:34.669Z,2.70
2018-06-23T20:22:03.145Z,1.73
2018-06-23T20:24:31.669Z,4.07
2018-06-23T20:27:00.109Z,2.60
2018-06-23T20:29:28.481Z,2.20
2018-06-23T20:31:56.910Z,3.03
2018-06-23T20:34:25.305Z,4.30
2018-06-23T20:36:53.843Z,3.47
2018-06-23T20:39:22.232Z,3.53
2018-06-23T20:41:50.665Z,3.70
2018-06-23T20:44:19.072Z,4.67
2018-06-23T20:46:47.472Z,4.50
2018-06-23T20:49:16.165Z,6.17
2018-06-23T20:51:44.613Z,4.83
2018-06-23T20:54:13.182Z,4.43
2018-06-23T20:56:42.081Z,4.70
2018-06-23T20:59:10.526Z,5.40
2018-06-23T21:01:38.981Z,6.83
2018-06-23T21:04:07.389Z,8.10
2018-06-23T21:06:35.918Z,7.23
2018-06-23T21:09:06.338Z,5.40
2018-06-23T21:11:34.786Z,5.87
2018-06-23T21:14:03.263Z,5.23
2018-06-23T21:16:31.797Z,5.27
2018-06-23T21:19:00.257Z,6.50
2018-06-23T21:21:28.764Z,10.37
2018-06-23T21:23:57.216Z,15.00
2018-06-23T21:26:25.697Z,8.83
2018-06-23T21:28:54.215Z,9.83
2018-06-23T21:31:22.644Z,8.87
2018-06-23T21:33:51.256Z,8.67
2018-06-23T21:36:19.701Z,6.83
2018-06-23T21:38:48.143Z,8.17
2018-06-23T21:41:16.589Z,6.03
2018-06-23T21:43:45.165Z,5.93
2018-06-23T21:46:13.619Z,8.90
2018-06-23T21:48:42.183Z,6.50
2018-06-23T21:51:10.595Z,6.30
2018-06-23T21:53:39.114Z,5.53
2018-06-23T21:56:07.514Z,7.13
2018-06-23T21:58:35.989Z,5.97
2018-06-23T22:01:04.426Z,7.83
2018-06-23T22:03:33.029Z,9.03
2018-06-23T22:06:01.486Z,8.80
2018-06-23T22:08:29.893Z,5.77
2018-06-23T22:10:58.329Z,5.37
2018-06-23T22:13:26.818Z,7.83
2018-06-23T22:15:55.229Z,5.30
2018-06-23T22:18:23.644Z,5.70
2018-06-23T22:20:51.811Z,5.67
2018-06-23T22:23:20.245Z,9.20
2018-06-23T22:25:48.624Z,9.23
2018-06-23T22:28:17.042Z,6.10
2018-06-23T22:30:45.432Z,6.43
2018-06-23T22:33:13.940Z,10.70
2018-06-23T22:35:42.312Z,6.57
2018-06-23T22:38:10.433Z,5.80
2018-06-23T22:40:38.816Z,12.80
2018-06-23T22:43:07.231Z,5.70
2018-06-23T22:45:35.632Z,7.17
2018-06-23T22:48:04.144Z,6.63
2018-06-23T22:50:32.633Z,5.33
2018-06-23T22:53:01.026Z,8.40
2018-06-23T22:55:29.463Z,5.60
2018-06-23T22:57:57.905Z,10.73
2018-06-23T23:00:26.345Z,5.53
2018-06-23T23:02:54.745Z,4.90
2018-06-23T23:05:23.217Z,5.07
2018-06-23T23:07:51.609Z,4.63
2018-06-23T23:10:20.053Z,4.37
2018-06-23T23:12:48.560Z,7.00
2018-06-23T23:15:16.966Z,4.03
2018-06-23T23:17:45.343Z,4.33
2018-06-23T23:20:13.788Z,4.03
2018-06-23T23:22:42.194Z,4.70
2018-06-23T23:25:10.648Z,6.53
2018-06-23T23:27:39.050Z,9.37
2018-06-23T23:30:08.079Z,4.10
2018-06-23T23:32:37.119Z,4.00
2018-06-23T23:35:05.569Z,6.50
2018-06-23T23:37:34.072Z,5.70
2018-06-23T23:40:02.525Z,3.87
2018-06-23T23:42:30.973Z,3.83
2018-06-23T23:44:59.525Z,3.80
2018-06-23T23:47:27.898Z,3.53
2018-06-23T23:49:56.310Z,5.10
2018-06-23T23:52:24.743Z,4.33
2018-06-23T23:54:53.251Z,3.00
2018-06-23T23:57:21.708Z,2.90
2018-06-23T23:59:50.237Z,2.70
